sensor_id;sensor_type;location;lat;lon;timestamp;pressure;altitude;pressure_sealevel;temperature;humidity
52735;BME280;38631;47.572;10.704;2022-12-18T00:00:27;93279.78;;;-7.02;100.00
52735;BME280;38631;47.572;10.704;2022-12-18T00:02:52;93283.00;;;-7.15;100.00
52735;BME280;38631;47.572;10.704;2022-12-18T00:05:18;93282.69;;;-6.76;100.00
52735;BME280;38631;47.572;10.704;2022-12-18T00:07:43;93282.03;;;-7.44;100.00
52735;BME280;38631;47.572;10.704;2022-12-18T00:10:08;93290.03;;;-7.39;100.00
52735;BME280;38631;47.572;10.704;2022-12-18T00:12:34;93280.34;;;-7.22;100.00
52735;BME280;38631;47.572;10.704;2022-12-18T00:14:59;93287.28;;;-7.37;100.00
52735;BME280;38631;47.572;10.704;2022-12-18T00:17:25;93284.31;;;-7.64;100.00
52735;BME280;38631;47.572;10.704;2022-12-18T00:19:50;93278.28;;;-7.56;100.00
52735;BME280;38631;47.572;10.704;2022-12-18T00:22:15;93286.28;;;-7.51;100.00
52735;BME280;38631;47.572;10.704;2022-12-18T00:24:41;93285.59;;;-7.30;100.00
52735;BME280;38631;47.572;10.704;2022-12-18T00:27:06;93288.75;;;-7.57;100.00
52735;BME280;38631;47.572;10.704;2022-12-18T00:29:31;93290.03;;;-7.53;100.00
52735;BME280;38631;47.572;10.704;2022-12-18T00:31:57;93295.34;;;-7.55;100.00
52735;BME280;38631;47.572;10.704;2022-12-18T00:34:22;93294.81;;;-7.65;100.00
52735;BME280;38631;47.572;10.704;2022-12-18T00:36:48;93293.81;;;-7.79;100.00
52735;BME280;38631;47.572;10.704;2022-12-18T00:39:14;93300.78;;;-7.65;100.00
52735;BME280;38631;47.572;10.704;2022-12-18T00:41:39;93302.56;;;-7.50;100.00
52735;BME280;38631;47.572;10.704;2022-12-18T00:44:23;93301.25;;;-7.46;100.00
52735;BME280;38631;47.572;10.704;2022-12-18T00:46:48;93316.03;;;-7.78;100.00
52735;BME280;38631;47.572;10.704;2022-12-18T00:49:15;93317.75;;;-7.55;100.00
52735;BME280;38631;47.572;10.704;2022-12-18T00:51:41;93315.13;;;-7.32;100.00
52735;BME280;38631;47.572;10.704;2022-12-18T00:54:07;93320.78;;;-7.67;100.00
52735;BME280;38631;47.572;10.704;2022-12-18T00:56:32;93313.97;;;-7.83;100.00
52735;BME280;38631;47.572;10.704;2022-12-18T00:58:59;93322.88;;;-7.70;100.00
52735;BME280;38631;47.572;10.704;2022-12-18T01:01:25;93318.78;;;-7.27;100.00
52735;BME280;38631;47.572;10.704;2022-12-18T01:03:50;93317.59;;;-7.54;100.00
52735;BME280;38631;47.572;10.704;2022-12-18T01:06:16;93318.75;;;-7.56;100.00
52735;BME280;38631;47.572;10.704;2022-12-18T01:08:42;93322.47;;;-7.59;100.00
52735;BME280;38631;47.572;10.704;2022-12-18T01:11:15;93326.53;;;-7.79;100.00
52735;BME280;38631;47.572;10.704;2022-12-18T01:13:41;93327.44;;;-7.57;100.00
52735;BME280;38631;47.572;10.704;2022-12-18T01:16:07;93329.19;;;-7.73;100.00
52735;BME280;38631;47.572;10.704;2022-12-18T01:18:34;93331.22;;;-7.83;100.00
52735;BME280;38631;47.572;10.704;2022-12-18T01:20:59;93335.59;;;-7.69;100.00
52735;BME280;38631;47.572;10.704;2022-12-18T01:23:25;93335.50;;;-7.75;100.00
52735;BME280;38631;47.572;10.704;2022-12-18T01:25:50;93337.16;;;-7.59;100.00
52735;BME280;38631;47.572;10.704;2022-12-18T01:28:15;93334.22;;;-7.94;100.00
52735;BME280;38631;47.572;10.704;2022-12-18T01:30:41;93342.72;;;-7.71;100.00
52735;BME280;38631;47.572;10.704;2022-12-18T01:33:06;93337.31;;;-8.30;100.00
52735;BME280;38631;47.572;10.704;2022-12-18T01:35:31;93341.13;;;-7.72;100.00
52735;BME280;38631;47.572;10.704;2022-12-18T01:37:57;93345.16;;;-7.77;100.00
52735;BME280;38631;47.572;10.704;2022-12-18T01:40:23;93342.13;;;-7.58;100.00
52735;BME280;38631;47.572;10.704;2022-12-18T01:42:52;93349.47;;;-8.39;100.00
52735;BME280;38631;47.572;10.704;2022-12-18T01:52:42;93349.81;;;-8.19;100.00
52735;BME280;38631;47.572;10.704;2022-12-18T01:55:10;93344.66;;;-7.73;100.00
52735;BME280;38631;47.572;10.704;2022-12-18T01:57:36;93339.94;;;-7.84;100.00
52735;BME280;38631;47.572;10.704;2022-12-18T02:00:12;93346.78;;;-7.76;100.00
52735;BME280;38631;47.572;10.704;2022-12-18T02:02:40;93347.72;;;-7.69;100.00
52735;BME280;38631;47.572;10.704;2022-12-18T02:05:06;93346.47;;;-8.28;100.00
52735;BME280;38631;47.572;10.704;2022-12-18T02:07:40;93342.91;;;-8.41;100.00
52735;BME280;38631;47.572;10.704;2022-12-18T02:10:15;93338.44;;;-8.24;100.00
52735;BME280;38631;47.572;10.704;2022-12-18T02:13:17;93332.66;;;-8.04;100.00
52735;BME280;38631;47.572;10.704;2022-12-18T02:18:33;93340.53;;;-8.28;100.00
52735;BME280;38631;47.572;10.704;2022-12-18T02:21:28;93349.69;;;-8.26;100.00
52735;BME280;38631;47.572;10.704;2022-12-18T02:26:30;93349.75;;;-8.57;100.00
52735;BME280;38631;47.572;10.704;2022-12-18T02:29:08;93348.19;;;-8.12;100.00
52735;BME280;38631;47.572;10.704;2022-12-18T02:31:38;93356.78;;;-8.28;100.00
52735;BME280;38631;47.572;10.704;2022-12-18T02:34:07;93362.53;;;-8.72;100.00
52735;BME280;38631;47.572;10.704;2022-12-18T02:36:34;93352.44;;;-8.81;100.00
52735;BME280;38631;47.572;10.704;2022-12-18T02:39:02;93354.72;;;-8.55;100.00
52735;BME280;38631;47.572;10.704;2022-12-18T02:41:29;93351.03;;;-8.92;100.00
52735;BME280;38631;47.572;10.704;2022-12-18T02:44:01;93369.75;;;-8.75;100.00
52735;BME280;38631;47.572;10.704;2022-12-18T02:46:35;93373.72;;;-9.04;100.00
52735;BME280;38631;47.572;10.704;2022-12-18T02:49:26;93376.75;;;-9.00;100.00
52735;BME280;38631;47.572;10.704;2022-12-18T03:00:08;93362.06;;;-8.44;100.00
52735;BME280;38631;47.572;10.704;2022-12-18T03:05:19;93354.41;;;-8.52;100.00
52735;BME280;38631;47.572;10.704;2022-12-18T03:10:31;93358.00;;;-8.15;99.93
52735;BME280;38631;47.572;10.704;2022-12-18T03:13:04;93360.78;;;-8.40;100.00
52735;BME280;38631;47.572;10.704;2022-12-18T03:15:39;93351.09;;;-8.69;100.00
52735;BME280;38631;47.572;10.704;2022-12-18T03:18:21;93343.28;;;-8.53;100.00
52735;BME280;38631;47.572;10.704;2022-12-18T03:20:49;93342.19;;;-8.58;100.00
52735;BME280;38631;47.572;10.704;2022-12-18T03:23:23;93339.41;;;-8.49;100.00
52735;BME280;38631;47.572;10.704;2022-12-18T03:25:52;93342.44;;;-8.22;100.00
52735;BME280;38631;47.572;10.704;2022-12-18T03:28:21;93335.28;;;-7.89;100.00
52735;BME280;38631;47.572;10.704;2022-12-18T03:30:50;93339.69;;;-8.43;100.00
52735;BME280;38631;47.572;10.704;2022-12-18T03:33:26;93333.31;;;-8.56;100.00
52735;BME280;38631;47.572;10.704;2022-12-18T03:35:53;93327.38;;;-8.33;100.00
52735;BME280;38631;47.572;10.704;2022-12-18T03:38:18;93325.28;;;-8.07;100.00
52735;BME280;38631;47.572;10.704;2022-12-18T03:41:03;93332.38;;;-8.32;100.00
52735;BME280;38631;47.572;10.704;2022-12-18T03:43:37;93332.22;;;-8.61;100.00
52735;BME280;38631;47.572;10.704;2022-12-18T03:46:38;93328.88;;;-8.62;100.00
52735;BME280;38631;47.572;10.704;2022-12-18T03:49:19;93328.13;;;-8.79;100.00
52735;BME280;38631;47.572;10.704;2022-12-18T03:51:52;93330.84;;;-8.72;100.00
52735;BME280;38631;47.572;10.704;2022-12-18T03:54:20;93331.06;;;-8.82;100.00
52735;BME280;38631;47.572;10.704;2022-12-18T03:56:58;93330.44;;;-8.92;100.00
52735;BME280;38631;47.572;10.704;2022-12-18T03:59:25;93329.81;;;-8.94;100.00
52735;BME280;38631;47.572;10.704;2022-12-18T04:01:53;93334.81;;;-8.61;100.00
52735;BME280;38631;47.572;10.704;2022-12-18T04:04:20;93338.69;;;-8.65;100.00
52735;BME280;38631;47.572;10.704;2022-12-18T04:06:47;93348.97;;;-8.65;100.00
52735;BME280;38631;47.572;10.704;2022-12-18T04:09:14;93342.56;;;-8.70;100.00
52735;BME280;38631;47.572;10.704;2022-12-18T04:11:41;93354.34;;;-9.23;100.00
52735;BME280;38631;47.572;10.704;2022-12-18T04:14:09;93349.09;;;-9.62;100.00
52735;BME280;38631;47.572;10.704;2022-12-18T04:16:34;93352.59;;;-9.39;100.00
52735;BME280;38631;47.572;10.704;2022-12-18T04:18:59;93359.66;;;-9.32;100.00
52735;BME280;38631;47.572;10.704;2022-12-18T04:21:25;93350.72;;;-8.97;100.00
52735;BME280;38631;47.572;10.704;2022-12-18T04:23:50;93355.09;;;-9.06;100.00
52735;BME280;38631;47.572;10.704;2022-12-18T04:26:16;93354.75;;;-8.95;100.00
52735;BME280;38631;47.572;10.704;2022-12-18T04:28:41;93356.94;;;-8.83;100.00
52735;BME280;38631;47.572;10.704;2022-12-18T04:31:06;93370.19;;;-8.95;100.00
52735;BME280;38631;47.572;10.704;2022-12-18T04:33:32;93355.25;;;-9.07;100.00
52735;BME280;38631;47.572;10.704;2022-12-18T04:35:57;93352.88;;;-9.25;100.00
52735;BME280;38631;47.572;10.704;2022-12-18T04:38:23;93354.78;;;-9.11;100.00
52735;BME280;38631;47.572;10.704;2022-12-18T04:40:48;93361.88;;;-9.21;100.00
52735;BME280;38631;47.572;10.704;2022-12-18T04:43:13;93368.78;;;-9.14;100.00
52735;BME280;38631;47.572;10.704;2022-12-18T04:45:39;93359.28;;;-9.13;100.00
52735;BME280;38631;47.572;10.704;2022-12-18T04:48:04;93372.34;;;-9.23;100.00
52735;BME280;38631;47.572;10.704;2022-12-18T04:50:30;93364.06;;;-8.94;100.00
52735;BME280;38631;47.572;10.704;2022-12-18T04:52:56;93369.81;;;-8.83;100.00
52735;BME280;38631;47.572;10.704;2022-12-18T04:55:25;93379.97;;;-8.98;100.00
52735;BME280;38631;47.572;10.704;2022-12-18T04:57:50;93383.84;;;-8.94;100.00
52735;BME280;38631;47.572;10.704;2022-12-18T05:00:16;93378.94;;;-9.53;100.00
52735;BME280;38631;47.572;10.704;2022-12-18T05:02:41;93379.41;;;-9.33;100.00
52735;BME280;38631;47.572;10.704;2022-12-18T05:05:07;93375.94;;;-9.89;100.00
52735;BME280;38631;47.572;10.704;2022-12-18T05:07:33;93393.41;;;-9.44;100.00
52735;BME280;38631;47.572;10.704;2022-12-18T05:09:58;93383.09;;;-9.19;100.00
52735;BME280;38631;47.572;10.704;2022-12-18T05:12:23;93392.56;;;-9.11;100.00
52735;BME280;38631;47.572;10.704;2022-12-18T05:14:49;93392.59;;;-9.20;100.00
52735;BME280;38631;47.572;10.704;2022-12-18T05:17:14;93395.34;;;-9.46;100.00
52735;BME280;38631;47.572;10.704;2022-12-18T05:19:40;93399.03;;;-9.32;100.00
52735;BME280;38631;47.572;10.704;2022-12-18T05:22:06;93396.28;;;-9.30;100.00
52735;BME280;38631;47.572;10.704;2022-12-18T05:24:32;93400.41;;;-8.97;100.00
52735;BME280;38631;47.572;10.704;2022-12-18T05:26:57;93403.94;;;-8.89;100.00
52735;BME280;38631;47.572;10.704;2022-12-18T05:29:22;93413.47;;;-9.15;100.00
52735;BME280;38631;47.572;10.704;2022-12-18T05:31:48;93422.66;;;-9.53;100.00
52735;BME280;38631;47.572;10.704;2022-12-18T05:34:13;93422.63;;;-9.12;100.00
52735;BME280;38631;47.572;10.704;2022-12-18T05:36:39;93432.25;;;-8.98;100.00
52735;BME280;38631;47.572;10.704;2022-12-18T05:39:04;93429.47;;;-8.88;100.00
52735;BME280;38631;47.572;10.704;2022-12-18T05:41:29;93432.72;;;-9.10;100.00
52735;BME280;38631;47.572;10.704;2022-12-18T05:43:55;93431.63;;;-9.24;100.00
52735;BME280;38631;47.572;10.704;2022-12-18T05:46:20;93430.84;;;-9.33;100.00
52735;BME280;38631;47.572;10.704;2022-12-18T05:48:46;93439.81;;;-9.04;100.00
52735;BME280;38631;47.572;10.704;2022-12-18T05:51:16;93438.56;;;-9.25;100.00
52735;BME280;38631;47.572;10.704;2022-12-18T05:53:42;93428.94;;;-9.47;100.00
52735;BME280;38631;47.572;10.704;2022-12-18T05:56:11;93437.25;;;-9.29;100.00
52735;BME280;38631;47.572;10.704;2022-12-18T05:58:37;93441.63;;;-9.54;100.00
52735;BME280;38631;47.572;10.704;2022-12-18T06:01:12;93439.66;;;-9.19;100.00
52735;BME280;38631;47.572;10.704;2022-12-18T06:03:37;93434.09;;;-8.75;100.00
52735;BME280;38631;47.572;10.704;2022-12-18T06:06:03;93429.84;;;-9.07;100.00
52735;BME280;38631;47.572;10.704;2022-12-18T06:08:28;93430.28;;;-8.96;100.00
52735;BME280;38631;47.572;10.704;2022-12-18T06:10:54;93437.34;;;-8.81;100.00
52735;BME280;38631;47.572;10.704;2022-12-18T06:13:20;93445.03;;;-8.73;100.00
52735;BME280;38631;47.572;10.704;2022-12-18T06:15:45;93443.72;;;-8.61;100.00
52735;BME280;38631;47.572;10.704;2022-12-18T06:18:11;93443.59;;;-8.67;100.00
52735;BME280;38631;47.572;10.704;2022-12-18T06:20:36;93437.63;;;-8.60;100.00
52735;BME280;38631;47.572;10.704;2022-12-18T06:23:05;93447.50;;;-8.80;100.00
52735;BME280;38631;47.572;10.704;2022-12-18T06:25:30;93449.88;;;-8.78;100.00
52735;BME280;38631;47.572;10.704;2022-12-18T06:27:55;93444.34;;;-8.59;100.00
52735;BME280;38631;47.572;10.704;2022-12-18T06:30:22;93443.19;;;-8.48;100.00
52735;BME280;38631;47.572;10.704;2022-12-18T06:32:50;93444.91;;;-8.80;100.00
52735;BME280;38631;47.572;10.704;2022-12-18T06:35:15;93443.22;;;-8.56;100.00
52735;BME280;38631;47.572;10.704;2022-12-18T06:37:41;93443.44;;;-8.74;100.00
52735;BME280;38631;47.572;10.704;2022-12-18T06:40:07;93444.75;;;-8.86;100.00
52735;BME280;38631;47.572;10.704;2022-12-18T06:42:32;93444.03;;;-8.56;100.00
52735;BME280;38631;47.572;10.704;2022-12-18T06:44:57;93443.66;;;-8.44;100.00
52735;BME280;38631;47.572;10.704;2022-12-18T06:47:23;93441.00;;;-8.59;100.00
52735;BME280;38631;47.572;10.704;2022-12-18T06:49:48;93444.41;;;-8.75;100.00
52735;BME280;38631;47.572;10.704;2022-12-18T06:52:16;93450.84;;;-8.79;100.00
52735;BME280;38631;47.572;10.704;2022-12-18T06:54:42;93452.44;;;-8.70;100.00
52735;BME280;38631;47.572;10.704;2022-12-18T06:57:07;93453.88;;;-8.76;100.00
52735;BME280;38631;47.572;10.704;2022-12-18T06:59:33;93459.09;;;-8.92;100.00
52735;BME280;38631;47.572;10.704;2022-12-18T07:01:58;93450.03;;;-8.72;100.00
52735;BME280;38631;47.572;10.704;2022-12-18T07:04:30;93456.38;;;-9.07;100.00
52735;BME280;38631;47.572;10.704;2022-12-18T07:06:55;93457.78;;;-8.80;100.00
52735;BME280;38631;47.572;10.704;2022-12-18T07:09:21;93463.28;;;-8.99;100.00
52735;BME280;38631;47.572;10.704;2022-12-18T07:11:46;93469.25;;;-9.07;100.00
52735;BME280;38631;47.572;10.704;2022-12-18T07:14:11;93460.16;;;-8.78;100.00
52735;BME280;38631;47.572;10.704;2022-12-18T07:16:37;93461.94;;;-8.79;100.00
52735;BME280;38631;47.572;10.704;2022-12-18T07:19:02;93477.56;;;-8.88;100.00
52735;BME280;38631;47.572;10.704;2022-12-18T07:21:27;93486.88;;;-8.79;100.00
52735;BME280;38631;47.572;10.704;2022-12-18T07:23:53;93480.50;;;-9.00;100.00
52735;BME280;38631;47.572;10.704;2022-12-18T07:26:19;93483.88;;;-9.07;100.00
52735;BME280;38631;47.572;10.704;2022-12-18T07:28:45;93492.22;;;-9.63;100.00
52735;BME280;38631;47.572;10.704;2022-12-18T07:31:14;93484.69;;;-9.15;100.00
52735;BME280;38631;47.572;10.704;2022-12-18T07:33:40;93480.34;;;-9.23;100.00
52735;BME280;38631;47.572;10.704;2022-12-18T07:36:07;93483.34;;;-9.68;100.00
52735;BME280;38631;47.572;10.704;2022-12-18T07:38:34;93483.22;;;-9.34;100.00
52735;BME280;38631;47.572;10.704;2022-12-18T07:41:10;93499.13;;;-9.06;100.00
52735;BME280;38631;47.572;10.704;2022-12-18T07:43:37;93506.66;;;-9.62;100.00
52735;BME280;38631;47.572;10.704;2022-12-18T07:46:02;93501.38;;;-9.44;100.00
52735;BME280;38631;47.572;10.704;2022-12-18T07:48:31;93496.41;;;-9.29;100.00
52735;BME280;38631;47.572;10.704;2022-12-18T07:51:03;93508.28;;;-9.44;100.00
52735;BME280;38631;47.572;10.704;2022-12-18T07:53:29;93501.72;;;-9.22;100.00
52735;BME280;38631;47.572;10.704;2022-12-18T07:55:59;93499.63;;;-9.27;100.00
52735;BME280;38631;47.572;10.704;2022-12-18T07:58:25;93508.09;;;-9.67;100.00
52735;BME280;38631;47.572;10.704;2022-12-18T08:00:51;93528.34;;;-9.72;100.00
52735;BME280;38631;47.572;10.704;2022-12-18T08:03:17;93520.16;;;-9.60;100.00
52735;BME280;38631;47.572;10.704;2022-12-18T08:05:43;93515.19;;;-9.53;100.00
52735;BME280;38631;47.572;10.704;2022-12-18T08:08:08;93523.53;;;-9.67;100.00
52735;BME280;38631;47.572;10.704;2022-12-18T08:10:34;93517.03;;;-9.96;100.00
52735;BME280;38631;47.572;10.704;2022-12-18T08:12:59;93514.22;;;-9.44;100.00
52735;BME280;38631;47.572;10.704;2022-12-18T08:15:24;93510.34;;;-9.72;100.00
52735;BME280;38631;47.572;10.704;2022-12-18T08:17:50;93512.59;;;-9.69;100.00
52735;BME280;38631;47.572;10.704;2022-12-18T08:20:15;93512.59;;;-9.69;100.00
52735;BME280;38631;47.572;10.704;2022-12-18T08:22:41;93512.59;;;-9.69;100.00
52735;BME280;38631;47.572;10.704;2022-12-18T08:25:08;93511.00;;;-9.46;100.00
52735;BME280;38631;47.572;10.704;2022-12-18T08:27:34;93505.69;;;-9.77;100.00
52735;BME280;38631;47.572;10.704;2022-12-18T08:29:59;93502.03;;;-9.33;100.00
52735;BME280;38631;47.572;10.704;2022-12-18T08:32:26;93513.59;;;-9.29;100.00
52735;BME280;38631;47.572;10.704;2022-12-18T08:34:51;93510.38;;;-9.40;100.00
52735;BME280;38631;47.572;10.704;2022-12-18T08:37:17;93521.78;;;-9.34;100.00
52735;BME280;38631;47.572;10.704;2022-12-18T08:39:42;93519.69;;;-9.47;100.00
52735;BME280;38631;47.572;10.704;2022-12-18T08:42:08;93512.75;;;-9.71;100.00
52735;BME280;38631;47.572;10.704;2022-12-18T08:44:52;93524.69;;;-9.29;100.00
52735;BME280;38631;47.572;10.704;2022-12-18T08:47:17;93517.75;;;-9.53;100.00
52735;BME280;38631;47.572;10.704;2022-12-18T08:49:42;93515.63;;;-9.82;100.00
52735;BME280;38631;47.572;10.704;2022-12-18T08:52:08;93515.03;;;-9.68;100.00
52735;BME280;38631;47.572;10.704;2022-12-18T08:54:34;93513.19;;;-9.92;100.00
52735;BME280;38631;47.572;10.704;2022-12-18T08:56:59;93528.38;;;-9.31;100.00
52735;BME280;38631;47.572;10.704;2022-12-18T08:59:24;93518.72;;;-9.62;100.00
52735;BME280;38631;47.572;10.704;2022-12-18T09:01:50;93520.50;;;-9.05;100.00
52735;BME280;38631;47.572;10.704;2022-12-18T09:04:15;93522.75;;;-8.86;100.00
52735;BME280;38631;47.572;10.704;2022-12-18T09:06:41;93529.00;;;-9.46;100.00
52735;BME280;38631;47.572;10.704;2022-12-18T09:09:06;93529.78;;;-9.70;100.00
52735;BME280;38631;47.572;10.704;2022-12-18T09:11:32;93525.50;;;-9.12;100.00
52735;BME280;38631;47.572;10.704;2022-12-18T09:13:59;93527.91;;;-9.02;100.00
52735;BME280;38631;47.572;10.704;2022-12-18T09:16:26;93531.44;;;-9.28;100.00
52735;BME280;38631;47.572;10.704;2022-12-18T09:18:54;93531.47;;;-9.20;100.00
52735;BME280;38631;47.572;10.704;2022-12-18T09:21:25;93519.25;;;-9.09;100.00
52735;BME280;38631;47.572;10.704;2022-12-18T09:23:51;93515.03;;;-9.10;100.00
52735;BME280;38631;47.572;10.704;2022-12-18T09:26:17;93524.53;;;-9.19;100.00
52735;BME280;38631;47.572;10.704;2022-12-18T09:28:43;93519.41;;;-9.19;100.00
52735;BME280;38631;47.572;10.704;2022-12-18T09:31:11;93510.72;;;-9.35;100.00
52735;BME280;38631;47.572;10.704;2022-12-18T09:33:37;93515.53;;;-8.82;100.00
52735;BME280;38631;47.572;10.704;2022-12-18T09:36:04;93513.28;;;-9.10;100.00
52735;BME280;38631;47.572;10.704;2022-12-18T09:38:30;93513.41;;;-8.79;100.00
52735;BME280;38631;47.572;10.704;2022-12-18T09:41:17;93513.56;;;-8.72;100.00
52735;BME280;38631;47.572;10.704;2022-12-18T09:43:53;93511.03;;;-9.05;100.00
52735;BME280;38631;47.572;10.704;2022-12-18T09:46:28;93505.34;;;-8.59;100.00
52735;BME280;38631;47.572;10.704;2022-12-18T09:48:57;93508.25;;;-8.23;100.00
52735;BME280;38631;47.572;10.704;2022-12-18T09:51:31;93512.41;;;-8.45;100.00
52735;BME280;38631;47.572;10.704;2022-12-18T09:54:04;93507.94;;;-8.20;100.00
52735;BME280;38631;47.572;10.704;2022-12-18T09:56:35;93509.88;;;-8.22;100.00
52735;BME280;38631;47.572;10.704;2022-12-18T09:59:03;93517.03;;;-8.40;100.00
52735;BME280;38631;47.572;10.704;2022-12-18T10:01:29;93513.84;;;-8.42;100.00
52735;BME280;38631;47.572;10.704;2022-12-18T10:03:55;93502.00;;;-8.29;100.00
52735;BME280;38631;47.572;10.704;2022-12-18T10:08:58;93506.38;;;-8.37;100.00
52735;BME280;38631;47.572;10.704;2022-12-18T10:27:48;93515.03;;;-7.91;100.00
52735;BME280;38631;47.572;10.704;2022-12-18T10:30:18;93509.53;;;-7.88;100.00
52735;BME280;38631;47.572;10.704;2022-12-18T10:32:44;93508.78;;;-7.65;100.00
52735;BME280;38631;47.572;10.704;2022-12-18T10:35:26;93508.22;;;-7.52;100.00
52735;BME280;38631;47.572;10.704;2022-12-18T10:40:57;93520.88;;;-7.34;100.00
52735;BME280;38631;47.572;10.704;2022-12-18T10:54:05;93495.22;;;-7.36;100.00
52735;BME280;38631;47.572;10.704;2022-12-18T10:56:33;93492.66;;;-7.36;100.00
52735;BME280;38631;47.572;10.704;2022-12-18T10:59:03;93492.03;;;-7.38;100.00
52735;BME280;38631;47.572;10.704;2022-12-18T11:01:54;93483.25;;;-7.29;100.00
52735;BME280;38631;47.572;10.704;2022-12-18T11:04:28;93486.28;;;-7.25;100.00
52735;BME280;38631;47.572;10.704;2022-12-18T11:07:02;93482.84;;;-7.18;100.00
52735;BME280;38631;47.572;10.704;2022-12-18T11:09:39;93489.81;;;-7.03;100.00
52735;BME280;38631;47.572;10.704;2022-12-18T11:12:17;93496.34;;;-6.92;100.00
52735;BME280;38631;47.572;10.704;2022-12-18T11:14:50;93496.09;;;-6.83;100.00
52735;BME280;38631;47.572;10.704;2022-12-18T11:17:28;93487.31;;;-6.74;100.00
52735;BME280;38631;47.572;10.704;2022-12-18T11:20:04;93486.94;;;-6.85;100.00
52735;BME280;38631;47.572;10.704;2022-12-18T11:22:32;93491.72;;;-6.82;100.00
52735;BME280;38631;47.572;10.704;2022-12-18T11:25:18;93485.50;;;-6.88;100.00
52735;BME280;38631;47.572;10.704;2022-12-18T11:28:05;93480.34;;;-6.73;100.00
52735;BME280;38631;47.572;10.704;2022-12-18T11:31:09;93478.84;;;-6.67;100.00
52735;BME280;38631;47.572;10.704;2022-12-18T11:33:38;93473.59;;;-6.74;100.00
52735;BME280;38631;47.572;10.704;2022-12-18T11:36:08;93479.94;;;-6.62;100.00
52735;BME280;38631;47.572;10.704;2022-12-18T11:38:37;93475.34;;;-6.75;100.00
52735;BME280;38631;47.572;10.704;2022-12-18T11:41:10;93477.16;;;-6.60;100.00
52735;BME280;38631;47.572;10.704;2022-12-18T11:43:48;93483.13;;;-6.45;100.00
52735;BME280;38631;47.572;10.704;2022-12-18T11:46:23;93480.38;;;-6.58;100.00
52735;BME280;38631;47.572;10.704;2022-12-18T11:48:57;93481.53;;;-6.46;100.00
52735;BME280;38631;47.572;10.704;2022-12-18T11:51:37;93482.53;;;-6.47;100.00
52735;BME280;38631;47.572;10.704;2022-12-18T11:54:14;93482.44;;;-6.54;100.00
52735;BME280;38631;47.572;10.704;2022-12-18T11:56:48;93482.34;;;-6.45;100.00
52735;BME280;38631;47.572;10.704;2022-12-18T11:59:38;93481.56;;;-6.31;100.00
52735;BME280;38631;47.572;10.704;2022-12-18T12:05:29;93483.50;;;-6.48;100.00
52735;BME280;38631;47.572;10.704;2022-12-18T12:13:52;93482.97;;;-6.28;100.00
52735;BME280;38631;47.572;10.704;2022-12-18T12:16:32;93476.66;;;-6.26;100.00
52735;BME280;38631;47.572;10.704;2022-12-18T12:19:48;93471.13;;;-6.38;100.00
52735;BME280;38631;47.572;10.704;2022-12-18T12:28:17;93465.03;;;-6.15;100.00
52735;BME280;38631;47.572;10.704;2022-12-18T12:36:28;93454.09;;;-6.17;100.00
52735;BME280;38631;47.572;10.704;2022-12-18T12:38:59;93445.16;;;-6.15;100.00
52735;BME280;38631;47.572;10.704;2022-12-18T12:41:31;93452.59;;;-6.12;100.00
52735;BME280;38631;47.572;10.704;2022-12-18T12:44:25;93454.97;;;-6.10;100.00
52735;BME280;38631;47.572;10.704;2022-12-18T12:46:56;93453.53;;;-6.13;100.00
52735;BME280;38631;47.572;10.704;2022-12-18T12:49:27;93454.28;;;-6.19;100.00
52735;BME280;38631;47.572;10.704;2022-12-18T12:52:00;93450.28;;;-6.21;100.00
52735;BME280;38631;47.572;10.704;2022-12-18T12:54:32;93435.19;;;-6.18;100.00
52735;BME280;38631;47.572;10.704;2022-12-18T12:59:47;93443.03;;;-6.11;100.00
52735;BME280;38631;47.572;10.704;2022-12-18T13:05:07;93437.13;;;-6.05;100.00
52735;BME280;38631;47.572;10.704;2022-12-18T13:07:47;93439.91;;;-6.06;100.00
52735;BME280;38631;47.572;10.704;2022-12-18T13:13:08;93438.66;;;-6.11;100.00
52735;BME280;38631;47.572;10.704;2022-12-18T13:15:48;93444.25;;;-6.07;100.00
52735;BME280;38631;47.572;10.704;2022-12-18T13:18:23;93434.91;;;-6.08;100.00
52735;BME280;38631;47.572;10.704;2022-12-18T13:25:54;93442.56;;;-6.00;100.00
52735;BME280;38631;47.572;10.704;2022-12-18T13:31:15;93440.59;;;-5.98;100.00
52735;BME280;38631;47.572;10.704;2022-12-18T13:34:24;93445.28;;;-5.87;100.00
52735;BME280;38631;47.572;10.704;2022-12-18T13:36:50;93460.31;;;-5.97;100.00
52735;BME280;38631;47.572;10.704;2022-12-18T13:41:52;93454.53;;;-5.92;100.00
52735;BME280;38631;47.572;10.704;2022-12-18T13:46:55;93457.59;;;-5.89;100.00
52735;BME280;38631;47.572;10.704;2022-12-18T13:49:37;93456.91;;;-5.97;100.00
52735;BME280;38631;47.572;10.704;2022-12-18T13:52:17;93453.16;;;-5.95;100.00
52735;BME280;38631;47.572;10.704;2022-12-18T13:54:48;93456.59;;;-5.88;100.00
52735;BME280;38631;47.572;10.704;2022-12-18T13:59:53;93448.13;;;-5.81;100.00
52735;BME280;38631;47.572;10.704;2022-12-18T14:02:24;93453.28;;;-5.81;100.00
52735;BME280;38631;47.572;10.704;2022-12-18T14:04:50;93453.28;;;-5.81;100.00
52735;BME280;38631;47.572;10.704;2022-12-18T14:07:22;93451.88;;;-5.84;100.00
52735;BME280;38631;47.572;10.704;2022-12-18T14:09:56;93462.38;;;-5.86;100.00
52735;BME280;38631;47.572;10.704;2022-12-18T14:12:25;93454.88;;;-5.80;100.00
52735;BME280;38631;47.572;10.704;2022-12-18T14:15:33;93452.66;;;-5.83;100.00
52735;BME280;38631;47.572;10.704;2022-12-18T14:18:21;93464.59;;;-5.82;100.00
52735;BME280;38631;47.572;10.704;2022-12-18T14:20:50;93458.97;;;-5.71;100.00
52735;BME280;38631;47.572;10.704;2022-12-18T14:23:38;93462.78;;;-5.67;100.00
52735;BME280;38631;47.572;10.704;2022-12-18T14:26:27;93462.91;;;-5.75;100.00
52735;BME280;38631;47.572;10.704;2022-12-18T14:28:59;93461.91;;;-5.74;100.00
52735;BME280;38631;47.572;10.704;2022-12-18T14:31:30;93473.25;;;-5.75;100.00
52735;BME280;38631;47.572;10.704;2022-12-18T14:33:56;93463.53;;;-5.73;100.00
52735;BME280;38631;47.572;10.704;2022-12-18T14:36:27;93463.28;;;-5.78;100.00